createdAt,value
2019-03-11T00:00:33.027Z,7.80
2019-03-11T00:03:01.640Z,7.85
2019-03-11T00:05:32.114Z,9.10
2019-03-11T00:08:00.542Z,9.73
2019-03-11T00:10:29.042Z,13.00
2019-03-11T00:12:57.495Z,10.15
2019-03-11T00:15:26.179Z,8.08
2019-03-11T00:17:54.781Z,8.53
2019-03-11T00:20:23.193Z,7.40
2019-03-11T00:22:51.568Z,7.67
2019-03-11T00:25:19.981Z,7.15
2019-03-11T00:27:48.390Z,8.28
2019-03-11T00:30:16.874Z,7.05
2019-03-11T00:32:45.445Z,6.22
2019-03-11T00:35:13.984Z,8.70
2019-03-11T00:37:42.553Z,7.30
2019-03-11T00:40:15.106Z,7.10
2019-03-11T00:42:43.666Z,6.15
2019-03-11T00:45:14.904Z,7.35
2019-03-11T00:47:43.649Z,6.97
2019-03-11T00:50:12.815Z,8.08
2019-03-11T00:52:44.023Z,8.23
2019-03-11T00:55:13.421Z,9.65
2019-03-11T00:57:42.953Z,9.83
2019-03-11T01:00:28.495Z,10.25
2019-03-11T01:02:56.910Z,8.63
2019-03-11T01:05:25.636Z,7.30
2019-03-11T01:07:54.064Z,9.78
2019-03-11T01:10:22.678Z,9.33
2019-03-11T01:12:51.415Z,8.28
2019-03-11T01:15:19.862Z,8.23
2019-03-11T01:17:50.074Z,9.15
2019-03-11T01:20:18.532Z,9.85
2019-03-11T01:22:47.179Z,7.37
2019-03-11T01:25:15.662Z,8.75
2019-03-11T01:27:44.298Z,8.45
2019-03-11T01:30:17.079Z,7.55
2019-03-11T01:32:45.752Z,6.53
2019-03-11T01:35:14.344Z,7.83
2019-03-11T01:37:42.834Z,8.18
2019-03-11T01:40:13.768Z,11.55
2019-03-11T01:42:43.577Z,8.98
2019-03-11T01:45:14.046Z,8.40
2019-03-11T01:47:42.448Z,8.20
2019-03-11T01:50:12.154Z,10.53
2019-03-11T01:52:40.589Z,10.45
2019-03-11T01:55:11.016Z,10.15
2019-03-11T01:57:39.442Z,10.05
2019-03-11T02:00:11.160Z,8.75
2019-03-11T02:02:39.536Z,12.03
2019-03-11T02:05:08.014Z,9.45
2019-03-11T02:07:39.141Z,9.15
2019-03-11T02:10:10.621Z,11.22
2019-03-11T02:12:38.995Z,11.20
2019-03-11T02:15:10.551Z,8.70
2019-03-11T02:17:40.713Z,8.85
2019-03-11T02:20:12.281Z,6.15
2019-03-11T02:22:40.727Z,7.92
2019-03-11T02:25:09.263Z,7.75
2019-03-11T02:27:37.622Z,5.30
2019-03-11T02:30:17.105Z,6.20
2019-03-11T02:32:45.645Z,6.72
2019-03-11T02:35:14.035Z,7.20
2019-03-11T02:37:42.658Z,4.35
2019-03-11T02:40:14.870Z,4.92
2019-03-11T02:42:43.457Z,8.25
2019-03-11T02:45:11.844Z,6.55
2019-03-11T02:47:40.355Z,6.62
2019-03-11T02:50:10.018Z,5.42
2019-03-11T02:52:38.529Z,5.45
2019-03-11T02:55:07.265Z,5.03
2019-03-11T02:57:36.010Z,4.40
2019-03-11T03:00:18.015Z,6.30
2019-03-11T03:03:04.724Z,5.83
2019-03-11T03:05:34.750Z,7.17
2019-03-11T03:08:03.346Z,6.72
2019-03-11T03:10:34.494Z,5.35
2019-03-11T03:13:02.945Z,8.23
2019-03-11T03:15:31.364Z,7.50
2019-03-11T03:17:59.795Z,7.87
2019-03-11T03:20:28.274Z,8.10
2019-03-11T03:22:56.774Z,8.78
2019-03-11T03:25:33.926Z,5.83
2019-03-11T03:27:55.500Z,5.60
2019-03-11T03:30:24.074Z,6.33
2019-03-11T03:32:52.503Z,6.92
2019-03-11T03:35:21.075Z,5.87
2019-03-11T03:37:49.691Z,6.45
2019-03-11T03:40:18.424Z,5.90
2019-03-11T03:42:47.114Z,6.55
2019-03-11T03:45:29.300Z,5.53
2019-03-11T03:47:58.336Z,5.05
2019-03-11T03:50:32.537Z,4.95
2019-03-11T03:53:01.012Z,5.08
2019-03-11T03:55:29.469Z,6.22
2019-03-11T03:57:57.986Z,5.53
2019-03-11T04:00:26.463Z,5.35
2019-03-11T04:02:54.891Z,7.55
2019-03-11T04:05:23.483Z,5.17
2019-03-11T04:07:51.909Z,6.80
2019-03-11T04:10:20.877Z,5.58
2019-03-11T04:12:49.204Z,5.37
2019-03-11T04:15:17.985Z,5.25
2019-03-11T04:17:46.347Z,5.95
2019-03-11T04:20:20.771Z,7.28
2019-03-11T04:22:49.154Z,6.62
2019-03-11T04:25:17.912Z,6.87
2019-03-11T04:27:46.388Z,7.58
2019-03-11T04:30:22.306Z,7.00
2019-03-11T04:32:50.862Z,7.78
2019-03-11T04:35:19.409Z,7.80
2019-03-11T04:37:47.865Z,10.05
2019-03-11T04:40:16.681Z,7.15
2019-03-11T04:42:45.151Z,8.85
2019-03-11T04:45:14.698Z,8.33
2019-03-11T04:47:43.299Z,9.20
2019-03-11T04:50:19.794Z,8.48
2019-03-11T04:52:48.366Z,8.35
2019-03-11T04:55:17.108Z,7.17
2019-03-11T04:57:51.187Z,9.30
2019-03-11T05:00:24.608Z,7.83
2019-03-11T05:02:53.007Z,7.85
2019-03-11T05:05:21.543Z,6.60
2019-03-11T05:07:50.025Z,7.95
2019-03-11T05:10:18.376Z,5.53
2019-03-11T05:12:46.783Z,6.10
2019-03-11T05:15:15.256Z,6.75
2019-03-11T05:17:43.714Z,6.03
2019-03-11T05:20:15.580Z,5.72
2019-03-11T05:22:44.104Z,6.53
2019-03-11T05:25:13.795Z,4.40
2019-03-11T05:27:42.281Z,6.58
2019-03-11T05:30:16.614Z,7.75
2019-03-11T05:32:45.205Z,6.40
2019-03-11T05:35:13.767Z,6.17
2019-03-11T05:37:42.086Z,7.25
2019-03-11T05:40:18.299Z,5.75
2019-03-11T05:42:47.094Z,5.62
2019-03-11T05:45:17.746Z,5.30
2019-03-11T05:47:47.326Z,5.15
2019-03-11T05:50:16.836Z,5.67
2019-03-11T05:52:45.646Z,4.75
2019-03-11T05:55:14.083Z,4.80
2019-03-11T05:57:42.874Z,6.20
2019-03-11T06:00:17.520Z,4.42
2019-03-11T06:02:46.284Z,7.10
2019-03-11T06:05:14.780Z,5.67
2019-03-11T06:07:43.143Z,5.00
2019-03-11T06:10:13.338Z,5.40
2019-03-11T06:12:41.845Z,5.90
2019-03-11T06:15:14.871Z,5.83
2019-03-11T06:17:43.449Z,4.42
2019-03-11T06:20:30.226Z,6.20
2019-03-11T06:22:59.676Z,7.03
2019-03-11T06:25:28.113Z,6.45
2019-03-11T06:27:56.746Z,6.33
2019-03-11T06:30:25.318Z,8.55
2019-03-11T06:32:53.937Z,6.80
2019-03-11T06:35:22.308Z,6.25
2019-03-11T06:37:50.927Z,8.55
2019-03-11T06:40:19.329Z,7.03
2019-03-11T06:42:47.854Z,8.93
2019-03-11T06:45:16.439Z,7.10
2019-03-11T06:47:45.048Z,5.47
2019-03-11T06:50:14.539Z,6.30
2019-03-11T06:52:42.992Z,7.42
2019-03-11T06:55:12.191Z,7.53
2019-03-11T06:57:41.054Z,4.70
2019-03-11T07:00:12.894Z,5.03
2019-03-11T07:02:41.418Z,7.72
2019-03-11T07:05:19.112Z,4.80
2019-03-11T07:07:41.838Z,5.50
2019-03-11T07:10:14.592Z,6.58
2019-03-11T07:12:43.023Z,4.97
2019-03-11T07:15:13.706Z,4.00
2019-03-11T07:17:44.681Z,7.45
2019-03-11T07:20:15.639Z,5.67
2019-03-11T07:22:44.098Z,6.40
2019-03-11T07:25:12.520Z,5.05
2019-03-11T07:27:41.120Z,4.47
2019-03-11T07:30:17.675Z,3.87
2019-03-11T07:32:46.138Z,4.20
2019-03-11T07:35:15.093Z,5.05
2019-03-11T07:37:43.590Z,5.80
2019-03-11T07:40:16.107Z,5.45
2019-03-11T07:42:44.655Z,5.25
2019-03-11T07:45:14.531Z,5.15
2019-03-11T07:47:43.180Z,5.67
2019-03-11T07:50:12.525Z,5.28
2019-03-11T07:52:40.974Z,6.53
2019-03-11T07:55:13.344Z,5.28
2019-03-11T07:57:41.817Z,7.15
2019-03-11T08:00:18.076Z,5.17
2019-03-11T08:02:46.575Z,6.17
2019-03-11T08:05:15.080Z,6.08
2019-03-11T08:07:43.644Z,7.22
2019-03-11T08:10:24.291Z,4.17
2019-03-11T08:12:52.671Z,6.12
2019-03-11T08:15:21.707Z,5.78
2019-03-11T08:17:50.580Z,4.95
2019-03-11T08:20:19.005Z,5.12
2019-03-11T08:22:47.555Z,5.70
2019-03-11T08:25:16.942Z,4.22
2019-03-11T08:27:45.602Z,6.03
2019-03-11T08:30:23.068Z,4.65
2019-03-11T08:32:51.656Z,4.72
2019-03-11T08:35:20.033Z,4.87
2019-03-11T08:37:48.452Z,4.85
2019-03-11T08:40:19.178Z,6.62
2019-03-11T08:42:47.600Z,4.95
2019-03-11T08:45:17.134Z,5.85
2019-03-11T08:47:45.659Z,5.60
2019-03-11T08:50:16.057Z,4.17
2019-03-11T08:52:44.511Z,6.37
2019-03-11T08:55:13.161Z,4.45
2019-03-11T08:57:41.672Z,6.50
2019-03-11T09:00:20.453Z,4.08
2019-03-11T09:02:48.880Z,5.03
2019-03-11T09:05:17.533Z,5.25
2019-03-11T09:07:45.964Z,5.45
2019-03-11T09:10:16.681Z,4.17
2019-03-11T09:12:47.467Z,5.12
2019-03-11T09:15:17.207Z,3.37
2019-03-11T09:17:47.616Z,3.17
2019-03-11T09:20:21.782Z,5.03
2019-03-11T09:22:50.230Z,4.03
2019-03-11T09:25:21.901Z,3.25
2019-03-11T09:27:51.075Z,3.80
2019-03-11T09:30:20.792Z,3.40
2019-03-11T09:32:49.245Z,4.90
2019-03-11T09:35:37.578Z,5.12
2019-03-11T09:38:05.959Z,4.42
2019-03-11T09:40:34.435Z,5.00
2019-03-11T09:43:02.816Z,3.33
2019-03-11T09:45:31.329Z,3.65
2019-03-11T09:47:59.757Z,6.15
2019-03-11T09:50:28.314Z,4.33
2019-03-11T09:52:56.685Z,4.62
2019-03-11T09:55:28.804Z,4.45
2019-03-11T09:57:57.211Z,4.20
2019-03-11T10:00:32.989Z,4.85
2019-03-11T10:03:01.284Z,3.98
2019-03-11T10:05:29.747Z,4.90
2019-03-11T10:07:58.278Z,4.65
2019-03-11T10:10:30.182Z,4.22
2019-03-11T10:12:58.562Z,4.03
2019-03-11T10:15:27.011Z,3.75
2019-03-11T10:17:55.630Z,4.10
2019-03-11T10:20:24.104Z,3.75
2019-03-11T10:22:52.403Z,3.98
2019-03-11T10:25:21.238Z,4.00
2019-03-11T10:27:49.544Z,3.33
2019-03-11T10:30:20.147Z,3.77
2019-03-11T10:32:48.481Z,4.40
2019-03-11T10:35:31.992Z,3.47
2019-03-11T10:37:50.709Z,4.92
2019-03-11T10:40:24.208Z,3.12
2019-03-11T10:42:52.589Z,3.72
2019-03-11T10:45:30.228Z,3.75
2019-03-11T10:47:51.027Z,6.40
2019-03-11T10:50:20.034Z,4.53
2019-03-11T10:52:48.556Z,3.72
2019-03-11T10:55:21.286Z,3.70
2019-03-11T10:57:49.683Z,5.50
2019-03-11T11:00:30.520Z,3.92
2019-03-11T11:02:59.064Z,4.25
2019-03-11T11:05:27.550Z,2.95
2019-03-11T11:07:56.239Z,5.72
2019-03-11T11:10:24.634Z,3.95
2019-03-11T11:12:53.144Z,3.45
2019-03-11T11:15:36.171Z,5.42
2019-03-11T11:18:04.646Z,4.17
2019-03-11T11:20:33.093Z,3.72
2019-03-11T11:23:01.711Z,5.03
2019-03-11T11:25:31.218Z,3.10
2019-03-11T11:27:59.654Z,5.03
2019-03-11T11:30:29.085Z,3.85
2019-03-11T11:32:57.519Z,3.43
2019-03-11T11:35:25.983Z,3.62
2019-03-11T11:37:54.358Z,3.55
2019-03-11T11:40:24.181Z,3.33
2019-03-11T11:42:52.704Z,3.20
2019-03-11T11:45:22.404Z,4.60
2019-03-11T11:47:50.918Z,4.65
2019-03-11T11:50:23.462Z,2.67
2019-03-11T11:52:52.011Z,5.00
2019-03-11T11:55:21.625Z,3.55
2019-03-11T11:57:50.063Z,3.45
2019-03-11T12:00:27.391Z,4.22
2019-03-11T12:02:56.035Z,3.20
2019-03-11T12:05:33.313Z,3.72
2019-03-11T12:08:01.733Z,3.12
2019-03-11T12:10:32.377Z,4.40
2019-03-11T12:13:00.856Z,5.10
2019-03-11T12:15:29.296Z,3.72
2019-03-11T12:17:57.662Z,4.85
2019-03-11T12:20:30.706Z,4.33
2019-03-11T12:22:59.179Z,6.28
2019-03-11T12:25:27.689Z,4.42
2019-03-11T12:27:58.234Z,4.40
2019-03-11T12:30:32.946Z,5.35
2019-03-11T12:33:01.436Z,4.22
2019-03-11T12:35:29.967Z,5.10
2019-03-11T12:37:58.371Z,5.03
2019-03-11T12:40:26.805Z,5.53
2019-03-11T12:42:55.283Z,5.85
2019-03-11T12:45:24.743Z,5.47
2019-03-11T12:47:53.244Z,5.10
2019-03-11T12:50:29.480Z,3.77
2019-03-11T12:52:57.950Z,6.00
2019-03-11T12:55:26.419Z,4.90
2019-03-11T12:57:54.935Z,4.22
2019-03-11T13:00:25.478Z,4.25
2019-03-11T13:02:53.878Z,4.62
2019-03-11T13:05:22.325Z,4.67
2019-03-11T13:07:50.923Z,4.28
2019-03-11T13:10:22.565Z,3.95
2019-03-11T13:12:50.978Z,4.60
2019-03-11T13:15:19.459Z,5.25
2019-03-11T13:17:48.043Z,4.42
2019-03-11T13:20:25.283Z,3.95
2019-03-11T13:22:53.735Z,4.45
2019-03-11T13:25:22.216Z,3.65
2019-03-11T13:27:50.912Z,4.97
2019-03-11T13:30:19.417Z,3.85
2019-03-11T13:32:47.821Z,2.95
2019-03-11T13:35:18.735Z,4.20
2019-03-11T13:37:47.186Z,4.10
2019-03-11T13:40:16.151Z,2.92
2019-03-11T13:42:44.725Z,3.60
2019-03-11T13:45:19.665Z,2.20
2019-03-11T13:47:47.912Z,3.37
2019-03-11T13:50:19.363Z,2.98
2019-03-11T13:52:49.689Z,3.33
2019-03-11T13:57:46.200Z,2.75
2019-03-11T14:00:19.951Z,4.00
2019-03-11T14:02:48.486Z,1.77
2019-03-11T14:05:17.042Z,2.45
2019-03-11T14:07:45.519Z,1.82
2019-03-11T14:10:15.062Z,2.05
2019-03-11T14:12:43.623Z,2.92
2019-03-11T14:15:20.133Z,2.00
2019-03-11T14:17:48.689Z,2.20
2019-03-11T14:20:17.095Z,1.65
2019-03-11T14:22:45.543Z,2.45
2019-03-11T14:25:14.620Z,2.05
2019-03-11T14:27:43.039Z,1.45
2019-03-11T14:30:16.654Z,2.10
2019-03-11T14:32:45.082Z,3.17
2019-03-11T14:35:13.829Z,2.52
2019-03-11T14:37:42.271Z,2.72
2019-03-11T14:40:17.854Z,2.17
2019-03-11T14:42:46.267Z,1.70
2019-03-11T14:45:18.773Z,1.12
2019-03-11T14:47:47.202Z,2.00
2019-03-11T14:50:16.145Z,1.62
2019-03-11T14:52:44.603Z,1.75
2019-03-11T14:55:14.682Z,2.05
2019-03-11T14:57:43.306Z,1.47
2019-03-11T15:00:20.795Z,1.90
2019-03-11T15:02:49.173Z,1.40
2019-03-11T15:05:18.500Z,1.90
2019-03-11T15:07:47.359Z,1.57
2019-03-11T15:10:18.145Z,2.17
2019-03-11T15:12:46.593Z,1.35
2019-03-11T15:15:20.270Z,1.75
2019-03-11T15:17:48.748Z,1.50
2019-03-11T15:20:17.392Z,2.92
2019-03-11T15:22:45.832Z,1.47
2019-03-11T15:25:16.595Z,1.50
2019-03-11T15:27:44.978Z,1.95
2019-03-11T15:30:16.125Z,1.95
2019-03-11T15:32:44.545Z,1.67
2019-03-11T15:35:13.055Z,2.60
2019-03-11T15:37:41.450Z,1.70
2019-03-11T15:40:15.601Z,1.30
2019-03-11T15:42:44.093Z,1.77
2019-03-11T15:45:19.462Z,1.17
2019-03-11T15:47:48.069Z,3.47
2019-03-11T15:50:19.332Z,1.47
2019-03-11T15:52:47.845Z,1.85
2019-03-11T15:55:17.294Z,2.08
2019-03-11T15:57:45.779Z,2.27
2019-03-11T16:00:22.079Z,2.10
2019-03-11T16:02:50.549Z,1.27
2019-03-11T16:05:23.158Z,1.85
2019-03-11T16:07:51.687Z,2.33
2019-03-11T16:10:20.086Z,1.40
2019-03-11T16:12:48.539Z,2.05
2019-03-11T16:15:17.357Z,1.82
2019-03-11T16:17:45.733Z,1.98
2019-03-11T16:20:21.774Z,1.50
2019-03-11T16:22:50.219Z,2.90
2019-03-11T16:25:18.637Z,2.00
2019-03-11T16:27:46.974Z,2.35
2019-03-11T16:30:22.674Z,1.40
2019-03-11T16:33:00.560Z,2.42
2019-03-11T16:35:22.656Z,2.50
2019-03-11T16:37:51.105Z,2.95
2019-03-11T16:40:21.011Z,2.50
2019-03-11T16:42:49.385Z,1.95
2019-03-11T16:45:19.225Z,1.52
2019-03-11T16:47:48.291Z,1.60
2019-03-11T16:50:20.924Z,2.30
2019-03-11T16:52:49.300Z,2.35
2019-03-11T16:55:20.787Z,2.15
2019-03-11T16:57:49.187Z,1.62
2019-03-11T17:00:31.025Z,2.90
2019-03-11T17:02:59.472Z,1.80
2019-03-11T17:05:28.199Z,1.90
2019-03-11T17:07:56.612Z,1.82
2019-03-11T17:10:25.205Z,2.75
2019-03-11T17:12:53.587Z,2.70
2019-03-11T17:15:22.100Z,2.25
2019-03-11T17:17:54.832Z,2.55
2019-03-11T17:20:23.225Z,3.08
2019-03-11T17:22:51.604Z,2.70
2019-03-11T17:25:20.089Z,2.70
2019-03-11T17:27:48.566Z,2.72
2019-03-11T17:30:21.885Z,3.08
2019-03-11T17:32:50.325Z,3.52
2019-03-11T17:35:18.816Z,2.85
2019-03-11T17:37:47.113Z,2.00
2019-03-11T17:40:19.383Z,3.08
2019-03-11T17:42:47.896Z,2.58
2019-03-11T17:45:16.555Z,2.72
2019-03-11T17:47:44.953Z,2.75
2019-03-11T17:50:18.594Z,3.52
2019-03-11T17:52:47.113Z,3.80
2019-03-11T17:55:16.485Z,2.85
2019-03-11T17:57:44.954Z,3.73
2019-03-11T18:00:18.097Z,2.17
2019-03-11T18:02:46.444Z,3.65
2019-03-11T18:05:15.323Z,3.90
2019-03-11T18:07:43.815Z,3.98
2019-03-11T18:10:12.161Z,3.90
2019-03-11T18:12:40.549Z,3.20
2019-03-11T18:15:12.786Z,5.20
2019-03-11T18:17:40.571Z,3.87
2019-03-11T18:20:14.881Z,2.62
2019-03-11T18:22:43.328Z,3.55
2019-03-11T18:25:18.971Z,4.03
2019-03-11T18:27:47.347Z,5.05
2019-03-11T18:30:23.723Z,4.17
2019-03-11T18:32:54.993Z,3.95
2019-03-11T18:35:23.349Z,5.45
2019-03-11T18:38:02.883Z,4.78
2019-03-11T18:40:22.012Z,5.45
2019-03-11T18:42:50.406Z,5.03
2019-03-11T18:45:18.812Z,4.12
2019-03-11T18:47:47.244Z,4.58
2019-03-11T18:50:21.433Z,6.53
2019-03-11T18:52:49.890Z,4.03
2019-03-11T18:55:18.392Z,3.70
2019-03-11T18:57:46.738Z,5.15
2019-03-11T19:00:18.473Z,2.42
2019-03-11T19:02:47.156Z,2.52
2019-03-11T19:05:22.814Z,3.77
2019-03-11T19:07:51.254Z,5.10
2019-03-11T19:10:19.590Z,5.10
2019-03-11T19:12:47.997Z,5.33
2019-03-11T19:15:21.427Z,5.20
2019-03-11T19:17:49.904Z,4.80
2019-03-11T19:20:21.059Z,3.60
2019-03-11T19:22:49.501Z,3.30
2019-03-11T19:25:18.036Z,4.75
2019-03-11T19:27:46.419Z,2.77
2019-03-11T19:30:17.324Z,5.20
2019-03-11T19:32:45.906Z,5.42
2019-03-11T19:35:14.643Z,6.75
2019-03-11T19:37:43.095Z,7.08
2019-03-11T19:40:16.731Z,6.95
2019-03-11T19:42:45.100Z,6.80
2019-03-11T19:45:14.885Z,6.40
2019-03-11T19:47:43.390Z,7.70
2019-03-11T19:50:15.914Z,6.50
2019-03-11T19:52:56.967Z,4.25
2019-03-11T19:55:14.430Z,4.70
2019-03-11T19:57:42.929Z,4.67
2019-03-11T20:00:24.902Z,4.70
2019-03-11T20:02:53.308Z,5.75
2019-03-11T20:05:30.831Z,5.33
2019-03-11T20:07:59.261Z,5.72
2019-03-11T20:10:27.867Z,6.83
2019-03-11T20:12:56.328Z,4.92
2019-03-11T20:15:24.686Z,5.65
2019-03-11T20:17:53.116Z,5.45
2019-03-11T20:20:21.584Z,6.78
2019-03-11T20:22:50.903Z,4.60
2019-03-11T20:25:31.434Z,5.60
2019-03-11T20:27:59.822Z,3.62
2019-03-11T20:30:28.225Z,5.05
2019-03-11T20:32:56.777Z,4.47
2019-03-11T20:35:25.271Z,3.27
2019-03-11T20:37:53.857Z,3.25
2019-03-11T20:40:22.206Z,4.33
2019-03-11T20:42:50.760Z,2.70
2019-03-11T20:45:20.215Z,3.22
2019-03-11T20:47:48.660Z,3.83
2019-03-11T20:50:17.941Z,3.77
2019-03-11T20:52:46.441Z,4.43
2019-03-11T20:55:16.098Z,3.17
2019-03-11T20:57:44.612Z,3.62
2019-03-11T21:00:15.760Z,5.25
2019-03-11T21:02:44.277Z,5.22
2019-03-11T21:05:15.180Z,4.72
2019-03-11T21:07:43.640Z,3.33
2019-03-11T21:10:14.015Z,3.80
2019-03-11T21:12:42.599Z,5.22
2019-03-11T21:15:13.468Z,5.33
2019-03-11T21:17:41.914Z,7.05
2019-03-11T21:20:15.670Z,6.35
2019-03-11T21:22:44.171Z,5.97
2019-03-11T21:25:14.771Z,5.22
2019-03-11T21:27:43.301Z,5.67
2019-03-11T21:30:16.688Z,5.30
2019-03-11T21:32:45.182Z,7.60
2019-03-11T21:35:13.735Z,4.10
2019-03-11T21:37:42.220Z,5.95
2019-03-11T21:40:18.643Z,5.03
2019-03-11T21:42:47.097Z,6.17
2019-03-11T21:45:17.584Z,6.22
2019-03-11T21:47:46.082Z,5.70
2019-03-11T21:50:22.287Z,6.78
2019-03-11T21:52:50.757Z,6.97
2019-03-11T21:55:19.203Z,6.80
2019-03-11T21:57:47.575Z,8.85
2019-03-11T22:00:33.609Z,6.75
2019-03-11T22:02:55.006Z,7.83
2019-03-11T22:05:23.399Z,6.50
2019-03-11T22:07:51.766Z,9.35
2019-03-11T22:10:20.687Z,7.37
2019-03-11T22:12:49.193Z,10.28
2019-03-11T22:15:23.239Z,8.65
2019-03-11T22:17:51.753Z,10.88
2019-03-11T22:20:20.246Z,9.55
2019-03-11T22:22:48.995Z,10.00
2019-03-11T22:25:19.087Z,10.18
2019-03-11T22:27:47.569Z,14.15
2019-03-11T22:30:18.612Z,11.20
2019-03-11T22:32:47.282Z,12.37
2019-03-11T22:35:15.900Z,9.08
2019-03-11T22:37:44.696Z,10.50
2019-03-11T22:40:16.901Z,9.10
2019-03-11T22:42:45.342Z,12.15
2019-03-11T22:45:22.243Z,10.18
2019-03-11T22:47:51.142Z,12.25
2019-03-11T22:50:21.091Z,10.53
2019-03-11T22:52:49.723Z,11.55
2019-03-11T22:55:18.705Z,10.70
2019-03-11T22:57:47.185Z,9.63
2019-03-11T23:00:56.095Z,8.28
2019-03-11T23:03:25.117Z,8.80
2019-03-11T23:05:58.155Z,10.72
2019-03-11T23:08:23.712Z,12.50
2019-03-11T23:10:52.235Z,9.43
2019-03-11T23:13:20.561Z,9.40
2019-03-11T23:15:50.696Z,10.70
2019-03-11T23:18:19.222Z,9.10
2019-03-11T23:20:47.839Z,9.35
2019-03-11T23:23:16.654Z,11.38
2019-03-11T23:25:45.093Z,10.40
2019-03-11T23:28:13.573Z,9.98
2019-03-11T23:30:42.243Z,8.63
2019-03-11T23:33:10.824Z,10.70
2019-03-11T23:35:39.409Z,11.75
2019-03-11T23:38:07.915Z,11.12
2019-03-11T23:40:39.899Z,10.78
2019-03-11T23:43:08.453Z,10.15
2019-03-11T23:45:37.108Z,10.13
2019-03-11T23:48:05.513Z,11.40
2019-03-11T23:50:33.925Z,10.45
2019-03-11T23:53:02.424Z,11.20
2019-03-11T23:55:30.904Z,13.45
2019-03-11T23:57:59.371Z,13.48
